Time;durP1;ratioP1;P1;durP2;ratioP2;P2;SDS_P1;SDS_P2;PMS_P1;PMS_P2;Temp;Humidity;BMP_temperature;BMP_pressure;BME280_temperature;BME280_humidity;BME280_pressure;Samples;Min_cycle;Max_cycle;Signal;HPM_P1;HPM_P2
2023/07/06 00:01:48;;;;;;;0.77;0.57;;;21.60;50.40;;;;;;5013997;28;20030;-73
2023/07/06 00:04:14;;;;;;;1.65;0.70;;;21.60;50.30;;;;;;5014346;28;20037;-73
2023/07/06 00:06:40;;;;;;;1.50;0.90;;;21.60;50.30;;;;;;5014377;28;20108;-73
2023/07/06 00:09:08;;;;;;;1.73;0.63;;;21.60;50.30;;;;;;5014088;28;20032;-73
2023/07/06 00:11:36;;;;;;;2.58;0.90;;;21.60;50.40;;;;;;5013717;28;20018;-74
2023/07/06 00:14:07;;;;;;;2.72;0.73;;;21.60;50.40;;;;;;5013908;28;20496;-73
2023/07/06 00:16:34;;;;;;;3.03;1.00;;;21.50;50.30;;;;;;5013760;28;20021;-73
2023/07/06 00:19:00;;;;;;;4.38;1.15;;;21.50;50.40;;;;;;5013712;28;20026;-73
2023/07/06 00:21:27;;;;;;;1.98;0.73;;;21.60;50.40;;;;;;5013757;28;20156;-74
2023/07/06 00:23:54;;;;;;;1.75;0.70;;;21.50;50.40;;;;;;5014763;28;20030;-70
2023/07/06 00:26:20;;;;;;;1.70;0.68;;;21.60;50.40;;;;;;5013786;28;20018;-70
2023/07/06 00:28:49;;;;;;;1.95;0.70;;;21.60;50.40;;;;;;5013741;28;20026;-70
2023/07/06 00:31:32;;;;;;;1.63;0.75;;;21.50;50.30;;;;;;5013606;28;20053;-70
2023/07/06 00:34:04;;;;;;;1.67;0.95;;;21.50;50.30;;;;;;5013820;28;20029;-70
2023/07/06 00:36:31;;;;;;;1.30;0.68;;;21.50;50.40;;;;;;5013580;28;20041;-73
2023/07/06 00:39:01;;;;;;;1.70;0.70;;;21.50;50.40;;;;;;5012528;28;20041;-74
2023/07/06 00:41:29;;;;;;;1.50;0.70;;;21.50;50.40;;;;;;5013527;28;20061;-73
2023/07/06 00:43:55;;;;;;;1.77;0.75;;;21.50;50.40;;;;;;5013427;28;20536;-73
2023/07/06 00:46:29;;;;;;;1.80;0.85;;;21.50;50.40;;;;;;5013599;28;20028;-74
2023/07/06 00:48:59;;;;;;;1.00;0.60;;;21.50;50.40;;;;;;5013756;28;20045;-74
2023/07/06 00:51:29;;;;;;;2.25;0.68;;;21.60;69.80;;;;;;5013696;28;20049;-70
2023/07/06 00:54:01;;;;;;;1.75;0.73;;;21.50;50.40;;;;;;5013333;28;20396;-70
2023/07/06 00:56:30;;;;;;;3.10;0.90;;;21.40;50.30;;;;;;5013107;28;20092;-71
2023/07/06 00:59:03;;;;;;;1.55;0.82;;;21.40;50.30;;;;;;5013301;28;20022;-70
2023/07/06 01:01:35;;;;;;;3.30;0.80;;;21.40;50.40;;;;;;5013001;28;20045;-70
2023/07/06 01:04:04;;;;;;;3.17;0.88;;;21.50;50.50;;;;;;5012941;28;20105;-74
2023/07/06 01:06:42;;;;;;;1.92;0.70;;;21.40;51.10;;;;;;5013321;28;20030;-74
2023/07/06 01:09:10;;;;;;;1.35;0.63;;;21.40;50.40;;;;;;5013184;28;20080;-73
2023/07/06 01:11:37;;;;;;;1.48;0.70;;;21.40;50.50;;;;;;5013026;28;20433;-73
2023/07/06 01:14:03;;;;;;;2.13;0.85;;;21.40;50.50;;;;;;5012947;28;20021;-73
2023/07/06 01:17:18;;;;;;;2.10;1.05;;;21.40;50.40;;;;;;5012831;28;20487;-74
2023/07/06 01:19:56;;;;;;;3.35;0.82;;;21.40;50.40;;;;;;4996763;28;20049;-71
2023/07/06 01:22:41;;;;;;;1.42;0.60;;;21.40;50.40;;;;;;5011659;28;20056;-71
2023/07/06 01:25:31;;;;;;;1.98;1.00;;;21.40;50.50;;;;;;5012609;28;20026;-70
2023/07/06 01:27:57;;;;;;;2.05;0.90;;;21.30;50.50;;;;;;5012484;28;20068;-70
2023/07/06 01:30:24;;;;;;;2.55;0.95;;;21.30;50.40;;;;;;5012490;28;20033;-71
2023/07/06 01:33:14;;;;;;;1.90;0.88;;;21.30;50.40;;;;;;5012660;28;20030;-71
2023/07/06 01:36:08;;;;;;;1.38;0.70;;;21.30;50.50;;;;;;5012456;28;20030;-71
2023/07/06 01:38:34;;;;;;;2.28;0.82;;;21.30;50.50;;;;;;5012376;28;20507;-71
2023/07/06 01:41:01;;;;;;;1.58;0.70;;;21.30;50.50;;;;;;5012603;28;20037;-70
2023/07/06 01:43:27;;;;;;;2.33;1.08;;;21.30;50.50;;;;;;5012201;28;20473;-70
2023/07/06 01:45:54;;;;;;;2.53;0.80;;;21.30;50.60;;;;;;5012274;28;20030;-70
2023/07/06 01:48:20;;;;;;;3.45;1.00;;;21.10;68.50;;;;;;5012785;28;20357;-70
2023/07/06 01:50:55;;;;;;;1.40;0.75;;;21.30;50.60;;;;;;5012253;28;20033;-70
2023/07/06 01:53:38;;;;;;;1.88;0.80;;;21.30;50.60;;;;;;5012321;28;20584;-70
2023/07/06 01:56:09;;;;;;;2.03;0.70;;;21.20;50.40;;;;;;5012024;28;20612;-70
2023/07/06 01:58:45;;;;;;;1.92;0.70;;;21.20;50.50;;;;;;5012137;28;20361;-74
2023/07/06 02:01:23;;;;;;;2.53;1.05;;;21.20;68.40;;;;;;5012056;28;20044;-73
2023/07/06 02:03:50;;;;;;;2.58;0.75;;;21.20;50.50;;;;;;5011759;28;20436;-73
2023/07/06 02:06:17;;;;;;;1.40;1.05;;;21.20;50.60;;;;;;5011893;28;20041;-74
2023/07/06 02:08:43;;;;;;;1.73;0.80;;;21.20;50.50;;;;;;5011898;28;20587;-73
2023/07/06 02:11:14;;;;;;;1.50;0.90;;;21.20;50.50;;;;;;5011818;28;20120;-73
2023/07/06 02:13:40;;;;;;;1.38;0.88;;;21.20;50.60;;;;;;5011772;28;20627;-73
2023/07/06 02:16:07;;;;;;;2.33;0.90;;;;;;;;;;5011829;28;20034;-73
2023/07/06 02:18:33;;;;;;;1.65;0.88;;;21.20;50.10;;;;;;5012411;28;20026;-74
2023/07/06 02:21:01;;;;;;;1.70;0.98;;;21.10;50.50;;;;;;5011705;28;20034;-74
2023/07/06 02:23:27;;;;;;;2.22;1.17;;;21.20;50.60;;;;;;5011909;28;20033;-74
2023/07/06 02:25:56;;;;;;;2.42;0.90;;;21.10;50.60;;;;;;5011827;28;20030;-74
2023/07/06 02:28:22;;;;;;;2.65;0.93;;;21.20;50.60;;;;;;5011953;28;20451;-71
2023/07/06 02:30:49;;;;;;;1.60;0.93;;;21.10;50.60;;;;;;5011843;28;20029;-73
2023/07/06 02:33:18;;;;;;;1.10;0.70;;;21.20;50.60;;;;;;5011380;28;20057;-73
2023/07/06 02:35:47;;;;;;;3.40;1.10;;;21.10;50.60;;;;;;5011632;28;20097;-74
2023/07/06 02:38:18;;;;;;;2.75;0.82;;;21.10;50.60;;;;;;5011744;28;20112;-74
2023/07/06 02:40:44;;;;;;;2.55;0.80;;;21.10;50.70;;;;;;5011551;28;20091;-73
2023/07/06 02:43:10;;;;;;;3.75;1.15;;;21.10;50.70;;;;;;5011671;28;20022;-73
2023/07/06 02:45:36;;;;;;;2.25;1.00;;;21.10;50.70;;;;;;5012154;28;20033;-73
2023/07/06 02:48:04;;;;;;;2.97;0.90;;;21.10;50.70;;;;;;5011447;28;20018;-74
2023/07/06 02:50:30;;;;;;;2.00;1.15;;;21.10;50.70;;;;;;5011468;28;20021;-73
2023/07/06 02:52:56;;;;;;;1.80;0.75;;;21.10;50.70;;;;;;5011497;28;20026;-74
2023/07/06 02:55:22;;;;;;;2.10;0.77;;;21.10;50.70;;;;;;5011490;28;20021;-73
2023/07/06 02:57:48;;;;;;;2.35;0.88;;;21.10;50.80;;;;;;5010204;28;20030;-73
2023/07/06 03:00:16;;;;;;;1.77;0.68;;;21.00;50.70;;;;;;5011374;28;20045;-73
2023/07/06 03:02:43;;;;;;;1.92;0.95;;;21.00;50.80;;;;;;5011138;28;20026;-73
2023/07/06 03:05:10;;;;;;;1.63;0.75;;;21.00;50.80;;;;;;5011005;28;20046;-73
2023/07/06 03:07:35;;;;;;;4.10;1.13;;;21.00;50.80;;;;;;5011238;28;20030;-73
2023/07/06 03:10:06;;;;;;;2.20;0.95;;;21.00;50.80;;;;;;5011114;28;20504;-73
2023/07/06 03:12:33;;;;;;;;;;;21.00;50.90;;;;;;5011711;28;20018;-73
2023/07/06 03:15:05;;;;;;;3.28;1.05;;;21.00;50.80;;;;;;5011984;28;20008;-71
2023/07/06 03:17:31;;;;;;;4.88;1.15;;;21.00;50.70;;;;;;5011219;28;20018;-70
2023/07/06 03:19:56;;;;;;;2.92;1.20;;;21.00;50.90;;;;;;5010953;28;20439;-70
2023/07/06 03:22:22;;;;;;;1.65;0.93;;;21.00;50.90;;;;;;5011088;28;20448;-70
2023/07/06 03:24:48;;;;;;;2.67;1.15;;;21.00;50.90;;;;;;5011145;28;20049;-70
2023/07/06 03:27:14;;;;;;;1.98;1.02;;;20.90;50.90;;;;;;5011270;28;20084;-70
2023/07/06 03:29:40;;;;;;;1.70;0.85;;;21.00;50.90;;;;;;5011069;28;20041;-70
2023/07/06 03:32:06;;;;;;;2.95;1.02;;;20.90;50.90;;;;;;5009559;28;20559;-70
2023/07/06 03:34:33;;;;;;;3.60;1.38;;;21.00;51.00;;;;;;5010995;28;20049;-71
2023/07/06 03:36:59;;;;;;;3.28;1.23;;;20.90;51.10;;;;;;5010981;28;20030;-70
2023/07/06 03:39:25;;;;;;;2.75;1.35;;;21.00;51.20;;;;;;5010788;28;20046;-70
2023/07/06 03:41:52;;;;;;;2.90;1.17;;;20.90;51.10;;;;;;5011057;28;20102;-71
2023/07/06 03:44:21;;;;;;;5.90;1.38;;;20.90;51.20;;;;;;5011516;28;20092;-70
2023/07/06 03:46:47;;;;;;;3.20;1.20;;;20.90;51.30;;;;;;5013992;28;20539;-70
2023/07/06 03:49:13;;;;;;;3.10;1.45;;;20.90;51.40;;;;;;5014116;28;20174;-69
2023/07/06 03:51:41;;;;;;;2.15;1.63;;;20.90;51.40;;;;;;5014256;28;20022;-70
2023/07/06 03:54:06;;;;;;;4.07;1.98;;;20.90;51.50;;;;;;5014363;28;20060;-71
2023/07/06 03:56:33;;;;;;;5.00;3.00;;;20.90;51.50;;;;;;5014342;28;20050;-71
2023/07/06 03:58:59;;;;;;;5.18;3.35;;;20.90;51.70;;;;;;5012996;28;20134;-70
2023/07/06 04:01:32;;;;;;;5.97;5.07;;;20.90;51.70;;;;;;5014443;28;20046;-71
2023/07/06 04:03:59;;;;;;;6.03;5.40;;;20.90;51.80;;;;;;5014268;28;20465;-71
2023/07/06 04:06:26;;;;;;;7.57;6.95;;;20.90;51.80;;;;;;5014202;28;20018;-71
2023/07/06 04:08:53;;;;;;;8.35;7.57;;;20.90;51.90;;;;;;5014107;28;20460;-71
2023/07/06 04:11:19;;;;;;;10.63;9.63;;;20.90;51.90;;;;;;5014588;28;20096;-71
2023/07/06 04:13:49;;;;;;;10.77;9.88;;;20.90;52.70;;;;;;5014462;28;20082;-71
2023/07/06 04:16:17;;;;;;;13.35;12.15;;;20.90;52.10;;;;;;5013892;28;20030;-71
2023/07/06 04:18:46;;;;;;;13.27;12.07;;;20.90;52.10;;;;;;5013889;28;20022;-71
2023/07/06 04:21:19;;;;;;;15.80;14.35;;;20.90;52.10;;;;;;5013781;28;20045;-71
2023/07/06 04:23:48;;;;;;;15.73;14.43;;;20.90;52.20;;;;;;5013910;28;20463;-71
2023/07/06 04:26:15;;;;;;;17.10;15.68;;;20.90;52.30;;;;;;5013769;28;20385;-70
2023/07/06 04:28:42;;;;;;;17.40;16.00;;;21.40;52.50;;;;;;5013601;28;20117;-71
2023/07/06 04:31:10;;;;;;;17.33;15.98;;;20.90;52.50;;;;;;5013803;28;20038;-71
2023/07/06 04:33:36;;;;;;;19.58;17.88;;;20.90;52.20;;;;;;5013563;28;20476;-71
2023/07/06 04:36:02;;;;;;;18.17;16.67;;;20.90;52.30;;;;;;5013610;28;20022;-71
2023/07/06 04:38:29;;;;;;;18.30;16.80;;;20.90;52.40;;;;;;5013713;28;20109;-71
2023/07/06 04:40:56;;;;;;;18.95;17.15;;;20.90;52.30;;;;;;5013853;28;20050;-71
2023/07/06 04:43:22;;;;;;;18.20;16.60;;;20.80;52.20;;;;;;5013422;28;20033;-70
2023/07/06 04:45:48;;;;;;;17.88;16.38;;;20.90;52.40;;;;;;5013390;28;20025;-71
2023/07/06 04:48:16;;;;;;;18.65;17.05;;;20.80;52.20;;;;;;5013199;28;20021;-70
2023/07/06 04:50:42;;;;;;;19.05;17.27;;;20.80;52.50;;;;;;5013492;28;20037;-70
2023/07/06 04:53:09;;;;;;;18.15;16.45;;;20.80;52.30;;;;;;5013391;28;20025;-70
2023/07/06 04:55:36;;;;;;;16.35;14.85;;;20.80;52.40;;;;;;5012769;28;20026;-70
2023/07/06 04:58:05;;;;;;;18.25;16.52;;;20.80;52.30;;;;;;5013038;28;20076;-70
2023/07/06 05:00:33;;;;;;;17.33;15.67;;;20.90;52.30;;;;;;5013068;28;20092;-70
2023/07/06 05:03:06;;;;;;;16.70;15.20;;;20.80;52.30;;;;;;5012928;28;20264;-71
2023/07/06 05:05:39;;;;;;;16.38;14.88;;;20.80;52.40;;;;;;5012691;28;20108;-70
2023/07/06 05:08:05;;;;;;;15.85;14.43;;;20.80;52.40;;;;;;5013369;28;20022;-71
2023/07/06 05:10:34;;;;;;;15.32;14.13;;;20.90;52.30;;;;;;5012512;28;20477;-69
2023/07/06 05:13:00;;;;;;;15.52;14.23;;;20.80;52.40;;;;;;5012665;28;20366;-70
2023/07/06 05:15:26;;;;;;;15.27;13.93;;;20.80;70.60;;;;;;5012517;28;20022;-70
2023/07/06 05:17:54;;;;;;;14.63;13.18;;;20.80;52.50;;;;;;5012858;28;20445;-71
2023/07/06 05:20:20;;;;;;;14.65;13.25;;;20.80;52.50;;;;;;5012840;28;20038;-72
2023/07/06 05:22:48;;;;;;;12.98;11.77;;;20.80;52.40;;;;;;5012639;28;20467;-71
2023/07/06 05:25:18;;;;;;;13.45;12.15;;;20.80;52.50;;;;;;5012606;28;20029;-71
2023/07/06 05:27:45;;;;;;;13.15;11.80;;;20.80;52.50;;;;;;5012590;28;20018;-71
2023/07/06 05:30:11;;;;;;;12.18;11.18;;;20.80;52.60;;;;;;5012493;28;20080;-71
2023/07/06 05:32:37;;;;;;;12.68;11.35;;;20.80;52.60;;;;;;5012486;28;20105;-70
2023/07/06 05:35:03;;;;;;;11.75;10.60;;;20.80;52.60;;;;;;5012460;28;20097;-72
2023/07/06 05:37:29;;;;;;;11.13;10.02;;;20.80;52.50;;;;;;5013056;28;20034;-71
2023/07/06 05:39:55;;;;;;;11.23;10.13;;;20.80;52.80;;;;;;5012559;28;20114;-71
2023/07/06 05:42:21;;;;;;;10.85;9.75;;;20.80;52.60;;;;;;5012499;28;20041;-71
2023/07/06 05:44:47;;;;;;;10.32;8.82;;;20.80;52.60;;;;;;5012183;28;20105;-71
2023/07/06 05:47:13;;;;;;;9.73;8.82;;;20.80;52.60;;;;;;5012482;28;20361;-71
2023/07/06 05:49:40;;;;;;;9.63;8.65;;;20.80;52.60;;;;;;5012483;28;20037;-71
2023/07/06 05:52:06;;;;;;;11.27;8.70;;;20.80;52.70;;;;;;5012323;28;20408;-70
2023/07/06 05:54:33;;;;;;;8.68;7.85;;;20.70;52.80;;;;;;5011972;28;20052;-70
2023/07/06 05:57:02;;;;;;;7.85;7.05;;;20.80;52.80;;;;;;5012047;28;20018;-70
2023/07/06 05:59:29;;;;;;;8.73;7.27;;;20.80;52.80;;;;;;5011961;28;20025;-70
2023/07/06 06:01:56;;;;;;;7.00;6.30;;;20.80;52.90;;;;;;5011890;28;20017;-70
2023/07/06 06:04:22;;;;;;;10.57;6.95;;;20.10;52.70;;;;;;5012176;28;20175;-70
2023/07/06 06:06:52;;;;;;;8.20;5.95;;;20.80;53.10;;;;;;5012825;28;20034;-73
2023/07/06 06:09:18;;;;;;;8.13;5.90;;;20.80;53.00;;;;;;5011968;28;20022;-73
2023/07/06 06:11:45;;;;;;;12.05;5.60;;;20.80;53.00;;;;;;5012450;28;20030;-73
2023/07/06 06:14:11;;;;;;;7.40;5.57;;;20.80;53.00;;;;;;5011942;28;20029;-72
2023/07/06 06:16:37;;;;;;;6.82;5.35;;;20.80;53.10;;;;;;5012007;28;20036;-70
2023/07/06 06:19:03;;;;;;;7.38;5.05;;;20.80;53.10;;;;;;5011800;28;20413;-70
2023/07/06 06:21:30;;;;;;;7.47;4.82;;;20.80;53.10;;;;;;5011828;28;20033;-71
2023/07/06 06:23:57;;;;;;;5.45;4.28;;;20.80;53.10;;;;;;5012060;28;20051;-70
2023/07/06 06:26:27;;;;;;;7.00;4.47;;;20.80;53.20;;;;;;5012146;28;20399;-71
2023/07/06 06:28:53;;;;;;;7.82;4.72;;;20.80;53.10;;;;;;5012054;28;20046;-70
2023/07/06 06:31:20;;;;;;;8.20;3.92;;;20.80;53.20;;;;;;5012222;28;20034;-70
2023/07/06 06:33:46;;;;;;;8.85;3.85;;;20.80;53.40;;;;;;5011679;28;20148;-70
2023/07/06 06:36:13;;;;;;;7.20;3.83;;;20.80;53.30;;;;;;5012252;28;20033;-71
2023/07/06 06:38:39;;;;;;;4.88;3.40;;;20.80;53.40;;;;;;5011976;28;20030;-72
2023/07/06 06:41:10;;;;;;;5.93;4.00;;;20.80;53.50;;;;;;5012163;28;20038;-72
2023/07/06 06:43:40;;;;;;;6.57;3.35;;;20.80;53.40;;;;;;5011852;28;20026;-72
2023/07/06 06:46:08;;;;;;;5.97;3.45;;;20.80;53.30;;;;;;5011952;28;20084;-73
2023/07/06 06:48:35;;;;;;;6.43;3.10;;;20.80;53.40;;;;;;5011952;28;20517;-72
2023/07/06 06:51:03;;;;;;;7.20;3.03;;;20.90;53.40;;;;;;5011871;28;20026;-72
2023/07/06 06:53:29;;;;;;;5.53;3.10;;;;;;;;;;5012261;28;20018;-74
2023/07/06 06:55:56;;;;;;;6.38;2.47;;;20.90;53.00;;;;;;5012080;28;20030;-74
2023/07/06 06:58:23;;;;;;;5.93;2.80;;;20.90;53.50;;;;;;5012144;28;20096;-74
2023/07/06 07:01:00;;;;;;;6.05;2.58;;;20.90;53.50;;;;;;5011498;28;20482;-73
2023/07/06 07:03:28;;;;;;;9.43;3.05;;;20.90;53.50;;;;;;5011672;28;20120;-72
2023/07/06 07:06:13;;;;;;;4.20;2.60;;;20.60;71.60;;;;;;5011401;28;20130;-75
2023/07/06 07:08:45;;;;;;;5.20;2.75;;;20.90;53.60;;;;;;5011774;28;20026;-73
2023/07/06 07:11:12;;;;;;;6.05;2.92;;;20.90;52.90;;;;;;5011675;28;20431;-72
2023/07/06 07:13:40;;;;;;;5.35;2.42;;;20.90;53.50;;;;;;5011572;28;20045;-73
2023/07/06 07:16:11;;;;;;;7.28;2.60;;;20.90;72.10;;;;;;5011743;28;20025;-72
2023/07/06 07:18:38;;;;;;;3.72;2.22;;;20.90;53.50;;;;;;5011464;28;20101;-70
2023/07/06 07:21:06;;;;;;;5.57;2.50;;;21.10;72.30;;;;;;5015260;28;20033;-70
2023/07/06 07:23:44;;;;;;;5.78;2.35;;;20.90;53.50;;;;;;5013922;28;20044;-71
2023/07/06 07:26:14;;;;;;;6.47;2.33;;;20.90;72.20;;;;;;5015019;28;20485;-72
2023/07/06 07:28:41;;;;;;;4.43;2.10;;;21.00;53.60;;;;;;5015196;28;20575;-71
2023/07/06 07:31:11;;;;;;;4.90;2.40;;;21.00;72.10;;;;;;5015359;28;20029;-73
2023/07/06 07:33:38;;;;;;;4.28;2.40;;;21.00;53.70;;;;;;5014941;28;20224;-70
2023/07/06 07:36:05;;;;;;;6.63;2.67;;;21.00;53.60;;;;;;5014826;28;20038;-70
2023/07/06 07:38:31;;;;;;;4.50;2.20;;;21.00;53.70;;;;;;5014873;28;20049;-71
2023/07/06 07:41:02;;;;;;;4.93;2.38;;;21.00;53.80;;;;;;5014689;28;20076;-71
2023/07/06 07:43:30;;;;;;;4.32;2.50;;;21.00;53.90;;;;;;5015090;28;20034;-71
2023/07/06 07:46:04;;;;;;;6.22;2.40;;;21.10;53.90;;;;;;5014967;28;20416;-71
2023/07/06 07:48:38;;;;;;;4.40;2.28;;;21.00;53.90;;;;;;5015182;28;20495;-71
2023/07/06 07:51:07;;;;;;;6.65;2.65;;;21.00;72.20;;;;;;5014559;28;20041;-72
2023/07/06 07:53:36;;;;;;;5.70;2.72;;;21.10;54.20;;;;;;5014737;28;20018;-71
2023/07/06 07:56:04;;;;;;;3.88;2.13;;;21.10;54.20;;;;;;5014790;28;20362;-71
2023/07/06 07:58:34;;;;;;;6.55;2.40;;;21.10;54.00;;;;;;5014595;28;20133;-72
2023/07/06 08:01:01;;;;;;;4.13;2.60;;;21.30;72.60;;;;;;5014359;28;20069;-72
2023/07/06 08:03:28;;;;;;;5.50;2.50;;;21.10;54.40;;;;;;5014550;28;20033;-73
2023/07/06 08:05:56;;;;;;;5.22;2.17;;;21.20;54.50;;;;;;5014179;28;20468;-72
2023/07/06 08:08:23;;;;;;;5.68;2.20;;;21.20;54.80;;;;;;5013043;28;20026;-72
2023/07/06 08:10:50;;;;;;;4.97;2.50;;;21.20;54.60;;;;;;5014309;28;20022;-72
2023/07/06 08:13:17;;;;;;;4.03;2.13;;;21.30;54.60;;;;;;5014411;28;20018;-71
2023/07/06 08:15:44;;;;;;;6.15;2.45;;;21.30;55.00;;;;;;5014443;28;20384;-73
2023/07/06 08:18:11;;;;;;;6.53;2.25;;;21.30;72.70;;;;;;5014155;28;20520;-72
2023/07/06 08:20:38;;;;;;;10.25;2.17;;;21.30;54.80;;;;;;5013965;28;20069;-72
2023/07/06 08:23:07;;;;;;;5.40;2.20;;;21.40;55.00;;;;;;5014396;28;20041;-72
2023/07/06 08:25:40;;;;;;;3.72;2.30;;;21.40;55.00;;;;;;5014092;28;20057;-72
2023/07/06 08:28:08;;;;;;;3.80;1.92;;;21.40;54.90;;;;;;5013943;28;20018;-72
2023/07/06 08:30:36;;;;;;;4.03;1.92;;;21.40;55.10;;;;;;5013638;28;20030;-73
2023/07/06 08:33:03;;;;;;;3.20;1.58;;;21.50;55.20;;;;;;5013873;28;20504;-72
2023/07/06 08:35:30;;;;;;;4.60;2.33;;;21.60;55.10;;;;;;5014326;28;20041;-72
2023/07/06 08:37:57;;;;;;;2.22;1.60;;;21.50;55.20;;;;;;5013820;28;20087;-72
2023/07/06 08:40:27;;;;;;;3.38;1.80;;;21.30;73.40;;;;;;5013577;28;20125;-72
2023/07/06 08:42:55;;;;;;;4.40;2.00;;;21.50;55.70;;;;;;5013618;28;20054;-72
2023/07/06 08:45:30;;;;;;;5.25;2.30;;;21.60;74.00;;;;;;5013660;28;20477;-71
2023/07/06 08:47:56;;;;;;;4.40;1.83;;;21.50;55.80;;;;;;5013680;28;20026;-72
2023/07/06 08:50:33;;;;;;;5.15;2.08;;;21.50;55.90;;;;;;5013528;28;20420;-73
2023/07/06 08:53:00;;;;;;;4.55;2.10;;;21.50;56.10;;;;;;5013650;28;20385;-71
2023/07/06 08:55:30;;;;;;;3.88;1.88;;;21.50;74.30;;;;;;5013771;28;20028;-72
2023/07/06 08:57:56;;;;;;;3.78;1.98;;;21.50;56.50;;;;;;5013735;28;20030;-72
2023/07/06 09:00:25;;;;;;;3.38;1.95;;;21.60;74.70;;;;;;5013122;28;20029;-72
2023/07/06 09:03:05;;;;;;;5.93;2.13;;;21.50;56.50;;;;;;5013938;28;20103;-72
2023/07/06 09:05:35;;;;;;;3.53;1.92;;;21.70;75.20;;;;;;5012981;28;20111;-72
2023/07/06 09:08:00;;;;;;;2.25;1.63;;;21.60;56.60;;;;;;5013156;28;20030;-72
2023/07/06 09:10:28;;;;;;;3.17;1.75;;;21.60;56.60;;;;;;5013123;28;20049;-73
2023/07/06 09:13:11;;;;;;;4.60;1.75;;;21.60;56.70;;;;;;5011904;28;20544;-72
2023/07/06 09:15:37;;;;;;;3.05;1.85;;;21.80;75.10;;;;;;5013123;28;20029;-72
2023/07/06 09:18:03;;;;;;;4.60;2.13;;;21.70;56.70;;;;;;5013118;28;20069;-72
2023/07/06 09:20:31;;;;;;;4.55;2.17;;;21.70;56.60;;;;;;5012764;28;20050;-72
2023/07/06 09:22:57;;;;;;;5.07;2.05;;;21.70;56.70;;;;;;5012902;28;20024;-72
2023/07/06 09:25:36;;;;;;;3.05;1.98;;;21.90;74.40;;;;;;5012782;28;20108;-73
2023/07/06 09:28:07;;;;;;;5.28;1.90;;;21.80;56.30;;;;;;5012788;28;20088;-72
2023/07/06 09:30:37;;;;;;;3.25;2.15;;;21.90;55.60;;;;;;5012991;28;20106;-73
2023/07/06 09:33:06;;;;;;;4.27;1.83;;;21.90;56.20;;;;;;5012855;28;20108;-72
2023/07/06 09:35:35;;;;;;;2.15;1.50;;;21.70;74.00;;;;;;5012671;28;20049;-72
2023/07/06 09:38:15;;;;;;;3.03;1.60;;;22.00;56.40;;;;;;5012692;28;20037;-73
2023/07/06 09:40:43;;;;;;;5.07;1.55;;;22.00;56.20;;;;;;5012527;28;20061;-71
2023/07/06 09:43:29;;;;;;;4.72;1.77;;;22.10;56.20;;;;;;5011967;28;20076;-71
2023/07/06 09:45:59;;;;;;;7.55;2.20;;;22.10;55.70;;;;;;5012815;28;20073;-71
2023/07/06 09:48:28;;;;;;;1.97;1.33;;;22.20;55.70;;;;;;5012459;28;20026;-72
2023/07/06 09:51:11;;;;;;;4.35;1.38;;;22.30;55.60;;;;;;5012358;28;20477;-72
2023/07/06 09:54:11;;;;;;;2.47;1.27;;;22.60;73.20;;;;;;5012575;28;20034;-71
2023/07/06 09:56:37;;;;;;;3.22;1.20;;;22.60;73.40;;;;;;5009112;28;20107;-71
2023/07/06 09:59:03;;;;;;;1.95;1.10;;;22.40;55.40;;;;;;5012007;28;20018;-72
2023/07/06 10:01:34;;;;;;;2.72;1.05;;;22.40;55.40;;;;;;5012379;28;20064;-69
2023/07/06 10:04:44;;;;;;;2.10;1.40;;;22.40;55.40;;;;;;5012164;28;20088;-71
2023/07/06 10:07:18;;;;;;;2.38;1.13;;;22.40;55.40;;;;;;5012099;28;20030;-70
2023/07/06 10:09:54;;;;;;;3.42;1.10;;;22.10;73.00;;;;;;5012339;28;20105;-70
2023/07/06 10:12:29;;;;;;;2.65;1.13;;;22.40;55.70;;;;;;5012021;28;20023;-73
2023/07/06 10:14:55;;;;;;;1.55;0.98;;;22.50;55.70;;;;;;5012381;28;20097;-73
2023/07/06 10:17:38;;;;;;;1.55;0.90;;;22.50;55.40;;;;;;5012049;28;20026;-75
2023/07/06 10:20:08;;;;;;;1.73;1.00;;;22.60;55.30;;;;;;5012275;28;20037;-74
2023/07/06 10:22:38;;;;;;;1.95;0.80;;;22.70;55.00;;;;;;5011810;28;20022;-74
2023/07/06 10:25:29;;;;;;;1.15;0.70;;;22.70;54.90;;;;;;5010686;28;20109;-73
2023/07/06 10:28:12;;;;;;;1.90;0.60;;;22.80;73.20;;;;;;5011929;28;20053;-74
2023/07/06 10:30:45;;;;;;;2.15;0.85;;;22.70;72.20;;;;;;4994972;28;20040;-72
2023/07/06 10:33:22;;;;;;;2.30;0.85;;;22.70;54.60;;;;;;5010707;28;20034;-74
2023/07/06 10:35:50;;;;;;;1.88;0.80;;;23.10;71.80;;;;;;5012096;28;20037;-78
2023/07/06 10:38:18;;;;;;;1.23;0.82;;;23.00;54.10;;;;;;4994621;28;20543;-74
2023/07/06 10:40:51;;;;;;;1.83;0.88;;;23.10;54.00;;;;;;5010535;28;20042;-73
2023/07/06 10:43:20;;;;;;;1.83;0.88;;;23.20;53.80;;;;;;5010364;28;20523;-72
2023/07/06 10:45:51;;;;;;;2.22;0.82;;;23.20;70.80;;;;;;5010235;28;20449;-73
2023/07/06 10:48:53;;;;;;;1.48;0.90;;;23.40;53.50;;;;;;5012455;28;20037;-72
2023/07/06 10:51:28;;;;;;;2.47;1.08;;;23.40;51.30;;;;;;4994294;28;20045;-72
2023/07/06 10:54:23;;;;;;;1.70;0.90;;;23.40;50.40;;;;;;4995398;28;20038;-72
2023/07/06 10:57:00;;;;;;;2.25;0.75;;;23.40;51.80;;;;;;5015861;28;20131;-73
2023/07/06 10:59:45;;;;;;;1.95;0.70;;;23.50;49.20;;;;;;5014650;28;20026;-73
2023/07/06 11:02:25;;;;;;;1.77;0.90;;;23.50;50.40;;;;;;5014126;28;20037;-72
2023/07/06 11:05:24;;;;;;;2.97;0.80;;;23.70;65.10;;;;;;5015085;28;20042;-73
2023/07/06 11:07:57;;;;;;;1.20;0.80;;;23.40;67.20;;;;;;5008745;28;20117;-74
2023/07/06 11:10:44;;;;;;;2.35;0.88;;;23.70;50.00;;;;;;4998771;28;20041;-73
2023/07/06 11:13:12;;;;;;;2.05;0.63;;;23.80;46.50;;;;;;5015590;28;20057;-75
2023/07/06 11:16:02;;;;;;;1.52;0.80;;;23.80;45.90;;;;;;5016066;28;20408;-75
2023/07/06 11:18:39;;;;;;;1.33;0.75;;;23.90;45.70;;;;;;5014067;28;20030;-72
2023/07/06 11:21:17;;;;;;;1.90;0.80;;;24.10;65.80;;;;;;5015426;28;20045;-74
2023/07/06 11:24:06;;;;;;;1.58;0.75;;;24.00;48.30;;;;;;5015293;28;20026;-74
2023/07/06 11:26:41;;;;;;;1.40;0.82;;;24.00;48.90;;;;;;5015080;28;20033;-73
2023/07/06 11:29:10;;;;;;;2.42;0.75;;;24.10;64.40;;;;;;5013476;28;20485;-73
2023/07/06 11:31:59;;;;;;;2.45;0.65;;;23.60;47.20;;;;;;5014973;28;20080;-73
2023/07/06 11:34:40;;;;;;;1.20;0.73;;;24.20;46.20;;;;;;5014962;28;20044;-75
2023/07/06 11:37:15;;;;;;;2.75;0.70;;;24.30;45.90;;;;;;5014903;28;20038;-74
2023/07/06 11:40:25;;;;;;;2.15;0.73;;;24.40;45.30;;;;;;5014924;28;20100;-74
2023/07/06 11:43:14;;;;;;;1.52;0.50;;;24.40;46.30;;;;;;5010730;28;20513;-74
2023/07/06 11:46:00;;;;;;;1.63;0.50;;;24.50;48.20;;;;;;5004062;28;20037;-73
2023/07/06 11:48:47;;;;;;;4.05;0.80;;;24.50;48.90;;;;;;5014592;28;20022;-74
2023/07/06 11:51:15;;;;;;;1.05;0.43;;;24.70;49.30;;;;;;5014721;28;20112;-76
2023/07/06 11:53:54;;;;;;;4.45;0.57;;;24.70;49.70;;;;;;5013415;28;20026;-74
2023/07/06 11:57:13;;;;;;;2.47;0.50;;;24.80;49.90;;;;;;5014730;28;20022;-73
2023/07/06 11:59:38;;;;;;;1.17;0.40;;;24.80;49.90;;;;;;5012926;28;20553;-72
2023/07/06 12:02:18;;;;;;;3.35;0.60;;;24.80;49.90;;;;;;5014190;28;20504;-72
2023/07/06 12:04:49;;;;;;;1.23;0.52;;;24.70;50.10;;;;;;5014113;28;20042;-72
2023/07/06 12:07:24;;;;;;;0.75;0.40;;;25.00;67.40;;;;;;5013382;28;20132;-71
2023/07/06 12:09:50;;;;;;;0.88;0.40;;;24.90;50.40;;;;;;5014241;28;20091;-71
2023/07/06 12:12:22;;;;;;;0.90;0.40;;;25.00;50.20;;;;;;5014584;28;20084;-71
2023/07/06 12:14:52;;;;;;;0.40;0.30;;;25.10;50.40;;;;;;5014257;28;20053;-74
2023/07/06 12:17:19;;;;;;;0.98;0.50;;;25.20;50.00;;;;;;5014134;28;20052;-74
2023/07/06 12:19:45;;;;;;;1.08;0.50;;;25.20;49.90;;;;;;5014137;28;20046;-75
2023/07/06 12:22:14;;;;;;;1.42;0.50;;;25.30;49.90;;;;;;5013900;28;20425;-75
2023/07/06 12:24:41;;;;;;;0.40;0.40;;;25.30;49.90;;;;;;5014145;28;20026;-75
2023/07/06 12:27:14;;;;;;;1.05;0.40;;;25.30;49.80;;;;;;5014320;28;20025;-73
2023/07/06 12:29:41;;;;;;;1.10;0.50;;;25.40;49.70;;;;;;5014090;28;20068;-74
2023/07/06 12:32:15;;;;;;;1.35;0.80;;;25.50;49.60;;;;;;5014262;28;20041;-75
2023/07/06 12:34:46;;;;;;;1.50;0.50;;;25.60;49.50;;;;;;5014239;28;20022;-75
2023/07/06 12:37:16;;;;;;;0.55;0.43;;;25.60;49.30;;;;;;5014090;28;20025;-74
2023/07/06 12:39:46;;;;;;;1.35;0.60;;;25.70;49.20;;;;;;5014279;28;20141;-75
2023/07/06 12:42:16;;;;;;;1.00;0.40;;;25.80;49.20;;;;;;5013703;28;20025;-75
2023/07/06 12:44:50;;;;;;;0.73;0.40;;;25.80;49.20;;;;;;5013691;28;20041;-74
2023/07/06 12:47:40;;;;;;;1.10;0.63;;;25.90;49.10;;;;;;5013713;28;20022;-75
2023/07/06 12:50:26;;;;;;;;;;;25.90;48.30;;;;;;5014329;28;20034;-74
2023/07/06 12:53:11;;;;;;;1.38;0.77;;;26.00;47.00;;;;;;5013762;28;19932;-77
2023/07/06 12:55:44;;;;;;;1.92;0.82;;;26.00;46.70;;;;;;5013322;28;20053;-75
2023/07/06 12:58:34;;;;;;;1.10;0.52;;;26.00;46.10;;;;;;5013140;28;20034;-75
2023/07/06 13:01:20;;;;;;;2.10;1.00;;;25.90;62.90;;;;;;5013510;28;20041;-76
2023/07/06 13:03:56;;;;;;;1.38;0.75;;;26.00;47.20;;;;;;5013441;28;20041;-75
2023/07/06 13:06:27;;;;;;;0.52;0.40;;;26.10;47.50;;;;;;5013435;28;20042;-74